Warning: Javascript must be enabled to use all the features on this page!


Page Loading - Please Wait...

Click to hideNews Bulletins

Peak Streamflow for the Nation

USGS 06893080 BLUE R NR STANLEY, KS

Johnson County, Kansas
Hydrologic Unit Code 10300101
Latitude  38°48'45", Longitude  94°40'32" NAD27
Drainage area 46  square miles
Contributing drainage area 46  square miles
Gage datum 886.47 feet above NAVD88
Output formats
Table
Graph
Tab-separated file
peakfq (watstore) format
Reselect output format
Water
Year
Date Gage
Height
(feet)
Stream-
flow
(cfs)
1970 1970-09-22 15.20 5,800
1971 1971-01-03 13.10 4,000
1972 1972-05-01 14.06 4,700
1973 1973-03-31 14.38 5,000
1974 1974-06-09 16.83 7,500
1975 1975-05-28 10.64 2,020
1976 1976-05-30 13.21 3,660
1977 1977-06-12 11.58 2,500
1978 1978-03-10 6.77 621
1979 1979-06-08 14.91 5,120
1980 1980-05-31 9.81 2,310
1981 1981-07-16 11.78 3,170
1982 1982-05-16 16.46 6,720
1983 1983-05-01 15.80 6,000
1984 1984-06-09 18.98 14,300
1985 1985-02-22 15.16 5,490
1986 1986-09-27 18.31 10,300
1987 1986-10-02 13.84 4,430
1988 1988-09-16 11.26 2,890
1989 1989-09-09 8.93 1,690
1990 1990-05-15 20.51 20,200
1991 1991-04-17 14.21 4,760
1992 1992-04-20 9.76 2,120
1993 1993-07-10 20.10 18,600
1994 1994-04-28 13.14 3,990
1995 1995-05-17 18.77 14,200
1996 1996-05-27 11.91 3,290
1997 1997-06-16 15.67 6,740
1998 1998-07-30 11.73 2,800
1999 1998-11-01 15.31 6,210
2000 2000-06-20 7.37 707
2001 2001-06-04 13.36 3,980
2002 2002-05-11 14.66 5,180
2003 2003-08-31 12.11 3,050
2004 2004-05-19 20.12 18,700
2005 2005-06-04 16.89 9,150
2006 2006-08-27 14.60 4,960
2007 2007-06-30 14.78 5,220
2008 2008-06-04 19.68 16,600
2009 2009-06-16 12.31 3,270
2010 2010-06-14 17.41 10,500
2011 2011-06-19 12.92 3,780
2012 2012-03-21 8.83 1,330
2013 2013-05-31 18.31 12,700
2014 2014-06-10 10.25 1,890
2015 2015-05-17 14.28 5,020
2016 2015-12-13 12.752 3,640
2017 2017-08-22 21.70 12,600
2018 2018-03-26 9.55 1,3802
2019 2018-10-08 17.50 7,540
2020 2020-05-28 16.59 6,450
2021 2021-08-13 11.47 2,550
2022 2022-05-25 13.56 3,830
?
  Peak Gage-Height Qualification Codes.
?
  Peak Streamflow Qualification Codes.